Time;durP1;ratioP1;P1;durP2;ratioP2;P2;SDS_P1;SDS_P2;PMS_P1;PMS_P2;Temp;Humidity;BMP_temperature;BMP_pressure;BME280_temperature;BME280_humidity;BME280_pressure;Samples;Min_cycle;Max_cycle;Signal;HPM_P1;HPM_P2
2022/11/10 00:00:14;;;;;;;11.07;9.63;;;;;;;;;;4932564;29;20496;-80
2022/11/10 00:03:02;;;;;;;12.70;10.40;;;;;;;;;;4931431;29;20176;-80
2022/11/10 00:05:46;;;;;;;12.60;11.27;;;;;;;;;;4933069;29;20055;-80
2022/11/10 00:08:31;;;;;;;14.05;10.50;;;;;;;;;;4945133;29;20131;-81
2022/11/10 00:11:15;;;;;;;12.70;11.50;;;;;;;;;;4952110;29;20059;-81
2022/11/10 00:17:03;;;;;;;18.63;10.65;;;;;;;;;;4937887;29;20047;-81
2022/11/10 00:19:48;;;;;;;11.23;10.13;;;;;;;;;;4935059;29;20040;-79
2022/11/10 00:22:33;;;;;;;16.95;13.35;;;;;;;;;;4938979;29;20040;-81
2022/11/10 00:25:18;;;;;;;18.88;13.35;;;;;;;;;;4937875;29;20463;-82
2022/11/10 00:28:02;;;;;;;11.07;10.05;;;;;;;;;;4935895;29;20145;-81
2022/11/10 00:30:46;;;;;;;14.23;11.07;;;;;;;;;;4940039;29;20035;-79
2022/11/10 00:33:33;;;;;;;13.90;12.50;;;;;;;;;;4939883;29;20055;-81
2022/11/10 00:36:17;;;;;;;9.02;8.23;;;;;;;;;;4941656;29;20118;-80
2022/11/10 00:39:02;;;;;;;9.07;7.97;;;;;;;;;;4945926;29;20040;-80
2022/11/10 00:41:46;;;;;;;13.98;12.52;;;;;;;;;;4951627;29;20042;-80
2022/11/10 00:44:31;;;;;;;13.32;11.10;;;;;;;;;;4950358;29;20075;-81
2022/11/10 00:47:15;;;;;;;16.02;12.73;;;;;;;;;;4947359;29;20047;-81
2022/11/10 00:50:00;;;;;;;17.00;13.77;;;;;;;;;;4948500;29;20046;-81
2022/11/10 00:52:45;;;;;;;15.02;11.52;;;;;;;;;;4934520;29;20035;-79
2022/11/10 00:55:29;;;;;;;14.00;12.60;;;;;;;;;;4946417;29;20063;-81
2022/11/10 00:58:14;;;;;;;13.15;11.85;;;;;;;;;;4948101;29;20103;-79
2022/11/10 01:00:59;;;;;;;14.93;11.82;;;;;;;;;;4949337;29;20043;-80
2022/11/10 01:03:44;;;;;;;14.85;13.27;;;;;;;;;;4960443;29;20035;-81
2022/11/10 01:06:28;;;;;;;13.77;12.38;;;;;;;;;;4961118;29;20067;-79
2022/11/10 01:09:14;;;;;;;19.80;15.60;;;;;;;;;;4960328;29;20028;-79
2022/11/10 01:11:58;;;;;;;13.35;10.43;;;;;;;;;;4959613;29;20051;-79
2022/11/10 01:14:42;;;;;;;16.70;15.00;;;;;;;;;;4946067;29;20043;-81
2022/11/10 01:17:29;;;;;;;12.43;11.15;;;;;;;;;;4959853;29;20040;-79
2022/11/10 01:20:14;;;;;;;14.40;12.07;;;;;;;;;;4953641;29;20039;-80
2022/11/10 01:22:58;;;;;;;15.00;13.55;;;;;;;;;;4959150;29;20020;-79
2022/11/10 01:25:44;;;;;;;13.30;11.95;;;;;;;;;;4959476;29;20042;-79
2022/11/10 01:28:28;;;;;;;16.30;12.65;;;;;;;;;;4959158;29;20048;-80
2022/11/10 01:31:13;;;;;;;19.05;13.40;;;;;;;;;;4946417;29;20031;-82
2022/11/10 01:33:59;;;;;;;15.27;12.95;;;;;;;;;;4954330;29;20098;-81
2022/11/10 01:36:43;;;;;;;16.17;12.65;;;;;;;;;;4943369;29;20115;-81
2022/11/10 01:39:28;;;;;;;15.60;13.65;;;;;;;;;;4943703;29;20500;-80
2022/11/10 01:42:13;;;;;;;22.70;17.15;;;;;;;;;;4943409;29;20039;-80
2022/11/10 01:45:33;;;;;;;17.45;12.35;;;;;;;;;;4937857;29;20074;-80
2022/11/10 01:48:18;;;;;;;18.25;14.80;;;;;;;;;;4880888;29;20537;-80
2022/11/10 01:51:09;;;;;;;15.00;13.07;;;;;;;;;;4945220;29;20035;-82
2022/11/10 01:53:56;;;;;;;12.53;10.50;;;;;;;;;;4952208;29;20032;-80
2022/11/10 01:56:46;;;;;;;18.05;13.63;;;;;;;;;;4952125;29;20034;-81
2022/11/10 01:59:31;;;;;;;15.13;13.63;;;;;;;;;;4952160;29;20083;-82
2022/11/10 02:02:20;;;;;;;12.25;10.73;;;;;;;;;;4948486;29;20171;-80
2022/11/10 02:05:04;;;;;;;18.48;13.13;;;;;;;;;;4947595;29;20429;-81
2022/11/10 02:07:49;;;;;;;16.50;12.93;;;;;;;;;;4930502;29;20052;-80
2022/11/10 02:10:36;;;;;;;18.13;13.05;;;;;;;;;;4947090;29;20271;-79
2022/11/10 02:13:20;;;;;;;15.73;13.60;;;;;;;;;;4953523;29;20038;-78
2022/11/10 02:16:05;;;;;;;13.82;12.35;;;;;;;;;;4949132;29;20040;-80
2022/11/10 02:18:49;;;;;;;16.40;14.65;;;;;;;;;;4944050;29;20044;-80
2022/11/10 02:21:33;;;;;;;19.45;14.35;;;;;;;;;;4949846;29;20042;-77
2022/11/10 02:24:18;;;;;;;18.60;12.82;;;;;;;;;;4949744;29;20039;-80
2022/11/10 02:27:03;;;;;;;15.27;13.55;;;;;;;;;;4935227;29;20052;-78
2022/11/10 02:29:47;;;;;;;17.73;13.48;;;;;;;;;;4961000;29;20043;-80
2022/11/10 02:32:32;;;;;;;13.60;12.20;;;;;;;;;;4954599;29;20031;-79
2022/11/10 02:35:17;;;;;;;14.63;12.70;;;;;;;;;;4956925;29;20095;-81
2022/11/10 02:38:01;;;;;;;14.70;13.13;;;;;;;;;;4956501;29;20031;-80
2022/11/10 02:40:49;;;;;;;19.35;13.40;;;;;;;;;;4957088;29;20035;-80
2022/11/10 02:43:33;;;;;;;19.13;15.07;;;;;;;;;;4957644;29;20075;-80
2022/11/10 02:46:18;;;;;;;14.38;12.85;;;;;;;;;;4956752;29;20043;-80
2022/11/10 02:49:03;;;;;;;14.60;12.10;;;;;;;;;;4940806;29;20091;-81
2022/11/10 02:51:47;;;;;;;8.40;7.50;;;;;;;;;;4948117;29;20591;-80
2022/11/10 02:54:32;;;;;;;14.43;12.90;;;;;;;;;;4952397;29;20028;-79
2022/11/10 02:57:17;;;;;;;19.83;13.50;;;;;;;;;;4954250;29;20012;-79
2022/11/10 03:00:02;;;;;;;15.18;12.93;;;;;;;;;;4951783;29;20036;-80
2022/11/10 03:02:46;;;;;;;15.18;13.20;;;;;;;;;;4951504;29;20411;-81
2022/11/10 03:05:31;;;;;;;16.27;14.60;;;;;;;;;;4950904;29;20043;-82
2022/11/10 03:08:16;;;;;;;14.60;10.45;;;;;;;;;;4950344;29;20051;-78
2022/11/10 03:11:02;;;;;;;15.27;13.20;;;;;;;;;;4950728;29;20055;-81
2022/11/10 03:13:46;;;;;;;13.18;11.80;;;;;;;;;;4952357;29;20031;-81
2022/11/10 03:16:31;;;;;;;15.68;12.02;;;;;;;;;;4947956;29;20031;-81
2022/11/10 03:19:15;;;;;;;17.20;15.40;;;;;;;;;;4946823;29;20054;-81
2022/11/10 03:22:00;;;;;;;17.40;13.32;;;;;;;;;;4948234;29;20038;-82
2022/11/10 03:24:45;;;;;;;13.15;11.85;;;;;;;;;;4948456;29;20071;-83
2022/11/10 03:27:29;;;;;;;20.00;14.57;;;;;;;;;;4948179;29;20047;-80
2022/11/10 03:30:13;;;;;;;19.08;13.85;;;;;;;;;;4944438;29;20107;-80
2022/11/10 03:32:58;;;;;;;22.17;14.38;;;;;;;;;;4944375;29;20031;-80
2022/11/10 03:35:43;;;;;;;12.00;10.82;;;;;;;;;;4945236;29;20031;-80
2022/11/10 03:38:27;;;;;;;17.95;15.38;;;;;;;;;;4947067;29;20071;-81
2022/11/10 03:41:12;;;;;;;14.00;12.25;;;;;;;;;;4946408;29;20047;-81
2022/11/10 03:43:57;;;;;;;16.45;14.48;;;;;;;;;;4942608;29;20544;-80
2022/11/10 03:46:41;;;;;;;12.25;11.13;;;;;;;;;;4929097;29;20044;-79
2022/11/10 03:49:26;;;;;;;14.15;12.30;;;;;;;;;;4930188;29;20047;-80
2022/11/10 03:52:10;;;;;;;15.25;13.18;;;;;;;;;;4929122;29;20540;-82
2022/11/10 03:54:55;;;;;;;16.85;12.77;;;;;;;;;;4933438;29;20044;-80
2022/11/10 03:57:40;;;;;;;18.75;14.60;;;;;;;;;;4918950;29;20062;-82
2022/11/10 04:00:25;;;;;;;14.82;12.38;;;;;;;;;;4933549;29;20028;-80
2022/11/10 04:03:09;;;;;;;12.20;10.95;;;;;;;;;;4934803;29;20028;-82
2022/11/10 04:09:00;;;;;;;15.50;13.25;;;;;;;;;;4934556;29;20064;-80
2022/11/10 04:17:51;;;;;;;15.35;13.75;;;;;;;;;;4955001;29;20051;-82
2022/11/10 04:20:35;;;;;;;15.25;10.23;;;;;;;;;;4954074;29;20091;-81
2022/11/10 04:23:26;;;;;;;20.20;13.85;;;;;;;;;;4957519;29;20039;-82
2022/11/10 04:26:29;;;;;;;;;;;;;;;;;;4957116;29;20067;-84
2022/11/10 04:29:17;;;;;;;16.17;11.95;;;;;;;;;;4970691;28;19902;-84
2022/11/10 04:32:01;;;;;;;17.67;13.05;;;;;;;;;;4978065;29;20043;-83
2022/11/10 04:34:46;;;;;;;19.95;16.92;;;;;;;;;;4974125;28;20062;-81
2022/11/10 04:37:31;;;;;;;20.27;15.90;;;;;;;;;;4970079;29;20039;-82
2022/11/10 04:40:16;;;;;;;15.95;13.45;;;;;;;;;;4977058;29;20036;-80
2022/11/10 04:43:00;;;;;;;14.57;12.60;;;;;;;;;;4976026;29;20598;-83
2022/11/10 04:45:45;;;;;;;16.02;13.07;;;;;;;;;;4979140;29;20019;-83
2022/11/10 04:48:29;;;;;;;17.00;13.88;;;;;;;;;;4979883;28;20067;-84
2022/11/10 04:51:15;;;;;;;17.38;15.07;;;;;;;;;;4979310;29;20035;-83
2022/11/10 04:53:59;;;;;;;19.35;14.07;;;;;;;;;;4980537;29;20023;-83
2022/11/10 04:56:44;;;;;;;16.67;14.98;;;;;;;;;;4968456;29;20092;-85
2022/11/10 04:59:28;;;;;;;14.73;12.27;;;;;;;;;;4961143;29;20050;-83
2022/11/10 05:02:13;;;;;;;14.02;12.45;;;;;;;;;;4944097;29;20028;-83
2022/11/10 05:04:58;;;;;;;11.43;9.65;;;;;;;;;;4957776;29;20040;-82
2022/11/10 05:07:45;;;;;;;15.70;12.18;;;;;;;;;;4957928;29;20068;-83
2022/11/10 05:10:30;;;;;;;12.93;9.40;;;;;;;;;;4957983;29;20695;-83
2022/11/10 05:13:15;;;;;;;14.43;12.30;;;;;;;;;;4956300;29;20050;-84
2022/11/10 05:16:00;;;;;;;16.23;11.32;;;;;;;;;;4955898;29;20035;-83
2022/11/10 05:18:44;;;;;;;12.93;11.25;;;;;;;;;;4956639;29;20066;-83
2022/11/10 05:21:29;;;;;;;16.77;13.77;;;;;;;;;;4955367;29;20031;-84
2022/11/10 05:24:14;;;;;;;12.82;11.25;;;;;;;;;;4954581;29;20034;-83
2022/11/10 05:26:59;;;;;;;14.27;10.00;;;;;;;;;;4953820;29;20043;-83
2022/11/10 05:29:43;;;;;;;14.52;11.48;;;;;;;;;;4955762;29;20043;-84
2022/11/10 05:32:29;;;;;;;15.02;13.50;;;;;;;;;;4954109;29;20039;-84
2022/11/10 05:35:14;;;;;;;13.48;11.77;;;;;;;;;;4952620;29;20032;-83
2022/11/10 05:37:58;;;;;;;11.68;10.43;;;;;;;;;;4954844;29;20040;-83
2022/11/10 05:40:43;;;;;;;14.25;12.77;;;;;;;;;;4953489;29;20056;-84
2022/11/10 05:43:27;;;;;;;19.75;10.57;;;;;;;;;;4952053;29;20040;-83
2022/11/10 05:46:12;;;;;;;16.20;11.82;;;;;;;;;;4952377;29;20048;-84
2022/11/10 05:48:56;;;;;;;14.80;9.95;;;;;;;;;;4922946;29;20051;-83
2022/11/10 05:51:41;;;;;;;9.93;8.23;;;;;;;;;;4940892;29;20027;-85
2022/11/10 05:54:26;;;;;;;14.55;11.85;;;;;;;;;;4942508;29;20039;-85
2022/11/10 06:08:20;;;;;;;14.70;12.63;;;;;;;;;;4952895;29;20301;-85
2022/11/10 06:11:04;;;;;;;18.30;11.95;;;;;;;;;;4946178;29;20047;-85
2022/11/10 06:13:49;;;;;;;14.98;10.90;;;;;;;;;;4938244;29;20048;-84
2022/11/10 06:16:33;;;;;;;10.77;9.57;;;;;;;;;;4956780;29;20042;-85
2022/11/10 06:19:18;;;;;;;15.23;10.65;;;;;;;;;;4957527;29;20043;-84
2022/11/10 06:22:03;;;;;;;16.48;10.80;;;;;;;;;;4930710;29;20040;-77
2022/11/10 06:24:47;;;;;;;16.20;9.02;;;;;;;;;;4930656;29;20036;-76
2022/11/10 06:27:31;;;;;;;14.25;10.15;;;;;;;;;;4933279;29;20055;-75
2022/11/10 06:30:16;;;;;;;11.07;9.98;;;;;;;;;;4932341;29;20035;-76
2022/11/10 06:33:00;;;;;;;16.83;10.88;;;;;;;;;;4931885;29;20094;-75
2022/11/10 06:35:45;;;;;;;9.25;8.40;;;;;;;;;;4902101;29;20086;-75
2022/11/10 06:38:29;;;;;;;14.40;12.38;;;;;;;;;;4922723;29;20516;-75
2022/11/10 06:41:14;;;;;;;10.88;9.63;;;;;;;;;;4931139;29;20512;-75
2022/11/10 06:43:58;;;;;;;14.50;8.65;;;;;;;;;;4927663;29;20388;-75
2022/11/10 06:46:42;;;;;;;18.33;13.65;;;;;;;;;;4928335;29;20055;-74
2022/11/10 06:49:27;;;;;;;13.32;11.23;;;;;;;;;;4930428;29;20034;-75
2022/11/10 06:52:11;;;;;;;22.83;10.90;;;;;;;;;;4928965;29;20035;-74
2022/11/10 06:54:56;;;;;;;11.68;8.95;;;;;;;;;;4930321;29;20516;-75
2022/11/10 06:57:41;;;;;;;12.93;10.00;;;;;;;;;;4930565;29;20475;-73
2022/11/10 07:00:25;;;;;;;13.90;11.27;;;;;;;;;;4929175;29;20063;-75
2022/11/10 07:03:11;;;;;;;11.10;9.43;;;;;;;;;;4929893;29;20122;-75
2022/11/10 07:05:56;;;;;;;16.73;10.43;;;;;;;;;;4929594;29;20047;-75
2022/11/10 07:08:41;;;;;;;11.40;8.98;;;;;;;;;;4929441;29;20146;-74
2022/11/10 07:11:25;;;;;;;16.48;11.95;;;;;;;;;;4931017;29;20050;-74
2022/11/10 07:14:10;;;;;;;22.30;10.40;;;;;;;;;;4930622;29;20649;-75
2022/11/10 07:16:54;;;;;;;15.27;10.43;;;;;;;;;;4929331;29;20027;-75
2022/11/10 07:19:39;;;;;;;9.90;8.30;;;;;;;;;;4928201;29;20130;-74
2022/11/10 07:22:23;;;;;;;14.82;10.20;;;;;;;;;;4923709;29;20043;-74
2022/11/10 07:25:08;;;;;;;12.00;8.95;;;;;;;;;;4930568;29;20079;-75
2022/11/10 07:27:56;;;;;;;14.60;12.38;;;;;;;;;;4922895;29;20539;-74
2022/11/10 07:30:40;;;;;;;6.82;6.22;;;;;;;;;;4933396;29;20408;-74
2022/11/10 07:33:24;;;;;;;12.18;10.85;;;;;;;;;;4934432;29;20031;-73
2022/11/10 07:36:09;;;;;;;12.23;10.23;;;;;;;;;;4934314;29;20214;-74
2022/11/10 07:38:54;;;;;;;12.10;10.73;;;;;;;;;;4927859;29;20570;-75
2022/11/10 07:41:38;;;;;;;12.75;9.95;;;;;;;;;;4930451;29;21183;-74
2022/11/10 07:44:23;;;;;;;12.63;9.57;;;;;;;;;;4941195;29;20492;-75
2022/11/10 07:47:08;;;;;;;12.43;10.32;;;;;;;;;;4921896;29;20106;-75
2022/11/10 07:49:52;;;;;;;13.23;9.40;;;;;;;;;;4930612;29;20027;-76
2022/11/10 07:52:37;;;;;;;16.50;9.95;;;;;;;;;;4927718;29;20040;-81
2022/11/10 07:55:22;;;;;;;11.65;9.57;;;;;;;;;;4935242;29;20523;-85
2022/11/10 07:58:06;;;;;;;11.38;8.52;;;;;;;;;;4943289;29;20047;-85
2022/11/10 08:00:51;;;;;;;11.23;9.15;;;;;;;;;;4947591;29;20079;-86
2022/11/10 08:03:36;;;;;;;15.57;8.90;;;;;;;;;;4935271;29;20036;-84
2022/11/10 08:06:21;;;;;;;15.25;10.43;;;;;;;;;;4934451;29;20059;-85
2022/11/10 08:09:06;;;;;;;15.55;9.45;;;;;;;;;;4959177;29;20028;-85
2022/11/10 08:11:51;;;;;;;14.50;12.02;;;;;;;;;;4943534;29;20027;-86
2022/11/10 08:14:36;;;;;;;13.52;9.73;;;;;;;;;;4957798;29;20036;-84
2022/11/10 08:17:20;;;;;;;16.95;9.93;;;;;;;;;;4957097;29;20056;-85
2022/11/10 08:20:05;;;;;;;19.65;14.10;;;;;;;;;;4956813;29;20052;-85
2022/11/10 08:22:51;;;;;;;15.98;11.07;;;;;;;;;;4930796;29;20046;-84
2022/11/10 08:25:36;;;;;;;12.45;9.05;;;;;;;;;;4957252;29;20046;-84
2022/11/10 08:28:21;;;;;;;17.30;12.23;;;;;;;;;;4943348;29;20036;-84
2022/11/10 08:31:08;;;;;;;12.32;10.02;;;;;;;;;;4956656;29;20290;-84
2022/11/10 08:33:53;;;;;;;15.40;12.38;;;;;;;;;;4943454;29;20020;-85
2022/11/10 08:36:37;;;;;;;18.58;12.10;;;;;;;;;;4958413;29;20027;-83
2022/11/10 08:39:23;;;;;;;11.65;10.45;;;;;;;;;;4958770;29;20031;-85
2022/11/10 08:42:07;;;;;;;11.23;8.70;;;;;;;;;;4958741;29;20016;-84
2022/11/10 08:44:52;;;;;;;20.05;12.88;;;;;;;;;;4958475;29;20022;-85
2022/11/10 08:47:36;;;;;;;13.15;9.50;;;;;;;;;;4958313;29;20052;-84
2022/11/10 08:50:22;;;;;;;14.20;12.73;;;;;;;;;;4958102;29;20032;-84
2022/11/10 08:53:08;;;;;;;15.05;12.45;;;;;;;;;;5021251;23;20123;-85
2022/11/10 08:55:56;;;;;;;14.57;10.80;;;;;;;;;;4955727;29;20036;-84
2022/11/10 08:58:41;;;;;;;17.55;13.10;;;;;;;;;;4941629;29;20071;-85
2022/11/10 09:01:25;;;;;;;12.57;9.18;;;;;;;;;;4957098;29;20036;-85
2022/11/10 09:04:10;;;;;;;20.08;13.38;;;;;;;;;;4971340;29;20062;-86
2022/11/10 09:06:56;;;;;;;14.20;12.23;;;;;;;;;;4960815;29;20035;-84
2022/11/10 09:09:41;;;;;;;16.55;12.68;;;;;;;;;;4960055;29;20036;-86
2022/11/10 09:12:25;;;;;;;20.33;12.35;;;;;;;;;;4959469;29;20032;-86
2022/11/10 09:15:10;;;;;;;18.33;11.88;;;;;;;;;;4958558;29;20192;-84
2022/11/10 09:18:01;;;;;;;16.10;11.88;;;;;;;;;;4956786;29;20023;-84
2022/11/10 09:20:46;;;;;;;17.95;14.32;;;;;;;;;;4959015;29;20289;-84
2022/11/10 09:23:30;;;;;;;15.43;12.77;;;;;;;;;;4958552;29;20064;-85
2022/11/10 09:26:15;;;;;;;14.27;11.45;;;;;;;;;;4956423;29;20066;-84
2022/11/10 09:29:00;;;;;;;12.75;11.43;;;;;;;;;;4955785;29;20067;-84
2022/11/10 09:31:45;;;;;;;17.40;10.98;;;;;;;;;;4956583;29;20467;-83
2022/11/10 09:34:30;;;;;;;15.20;10.45;;;;;;;;;;4956953;29;20055;-84
2022/11/10 09:37:14;;;;;;;20.88;10.80;;;;;;;;;;4943106;29;20046;-84
2022/11/10 09:39:59;;;;;;;19.02;12.10;;;;;;;;;;4957346;29;20069;-83
2022/11/10 09:42:43;;;;;;;11.02;8.68;;;;;;;;;;4956692;29;20043;-83
2022/11/10 09:45:31;;;;;;;13.57;11.10;;;;;;;;;;4955798;29;20036;-83
2022/11/10 09:48:18;;;;;;;14.32;10.23;;;;;;;;;;4959280;29;20051;-81
2022/11/10 09:51:07;;;;;;;11.52;10.18;;;;;;;;;;4959791;29;20024;-83
2022/11/10 09:53:56;;;;;;;18.83;13.40;;;;;;;;;;4956952;29;20046;-84
2022/11/10 09:56:41;;;;;;;13.55;12.13;;;;;;;;;;4941953;29;20042;-83
2022/11/10 09:59:26;;;;;;;16.90;10.90;;;;;;;;;;4954169;29;20041;-84
2022/11/10 10:02:30;;;;;;;17.17;13.77;;;;;;;;;;4955903;29;20405;-83
2022/11/10 10:05:18;;;;;;;14.98;12.38;;;;;;;;;;4941000;29;20027;-84
2022/11/10 10:08:06;;;;;;;12.93;9.73;;;;;;;;;;4955687;29;20040;-84
2022/11/10 10:10:54;;;;;;;14.52;12.02;;;;;;;;;;4941453;29;20036;-84
2022/11/10 10:13:41;;;;;;;12.32;8.93;;;;;;;;;;4957783;29;20043;-82
2022/11/10 10:17:01;;;;;;;14.18;12.75;;;;;;;;;;4954857;29;20040;-83
2022/11/10 10:19:50;;;;;;;17.17;11.10;;;;;;;;;;4895016;29;20033;-85
2022/11/10 10:22:54;;;;;;;13.35;11.68;;;;;;;;;;4957950;29;20046;-84
2022/11/10 10:25:39;;;;;;;14.80;11.23;;;;;;;;;;4957802;29;20063;-83
2022/11/10 10:28:28;;;;;;;23.77;13.02;;;;;;;;;;4955932;29;20036;-84
2022/11/10 10:31:14;;;;;;;20.58;13.68;;;;;;;;;;4957682;29;20035;-84
2022/11/10 10:33:58;;;;;;;17.40;12.00;;;;;;;;;;4944426;29;20059;-82
2022/11/10 10:36:44;;;;;;;16.33;11.30;;;;;;;;;;4958935;29;20047;-84
2022/11/10 10:39:39;;;;;;;21.90;11.65;;;;;;;;;;4958774;29;20020;-86
2022/11/10 10:56:31;;;;;;;20.65;13.00;;;;;;;;;;5914229;23;20818;-87
2022/11/10 10:59:17;;;;;;;18.90;13.20;;;;;;;;;;5334459;23;20027;-87
2022/11/10 11:10:37;;;;;;;14.57;12.95;;;;;;;;;;5618796;23;20025;-83
2022/11/10 11:13:23;;;;;;;17.20;12.15;;;;;;;;;;5127994;23;20047;-85
2022/11/10 11:16:13;;;;;;;18.45;12.80;;;;;;;;;;5394176;23;20375;-86
2022/11/10 11:31:08;;;;;;;18.90;15.40;;;;;;;;;;5540761;23;20047;-86
2022/11/10 11:36:51;;;;;;;18.48;13.32;;;;;;;;;;5378927;23;20154;-80
2022/11/10 11:39:39;;;;;;;12.50;10.98;;;;;;;;;;5422000;23;20035;-86
2022/11/10 11:42:31;;;;;;;16.98;13.43;;;;;;;;;;5245199;23;20067;-86
2022/11/10 11:45:18;;;;;;;19.15;14.43;;;;;;;;;;4950322;29;20050;-86
2022/11/10 11:50:49;;;;;;;15.15;12.38;;;;;;;;;;5691783;23;20025;-87
2022/11/10 11:53:42;;;;;;;11.95;9.45;;;;;;;;;;4958398;29;20054;-88
2022/11/10 11:56:29;;;;;;;19.20;14.82;;;;;;;;;;4937521;29;20076;-86
2022/11/10 12:02:30;;;;;;;16.63;12.30;;;;;;;;;;4956276;28;20074;-84
2022/11/10 12:08:19;;;;;;;14.52;10.77;;;;;;;;;;5114817;23;20043;-85
2022/11/10 12:11:14;;;;;;;25.25;15.02;;;;;;;;;;4953264;29;20036;-84
2022/11/10 12:13:58;;;;;;;17.35;13.75;;;;;;;;;;4951269;29;20074;-84
2022/11/10 12:16:46;;;;;;;10.95;9.68;;;;;;;;;;4966521;29;20050;-84
2022/11/10 12:19:45;;;;;;;13.77;12.25;;;;;;;;;;4951679;29;20133;-84
2022/11/10 12:22:34;;;;;;;13.00;9.50;;;;;;;;;;4964439;29;20047;-83
2022/11/10 12:25:30;;;;;;;18.58;11.50;;;;;;;;;;4965981;29;20035;-83
2022/11/10 12:28:16;;;;;;;21.73;13.32;;;;;;;;;;4961124;28;20043;-84
2022/11/10 12:31:01;;;;;;;15.40;12.40;;;;;;;;;;4947602;29;20787;-83
2022/11/10 12:33:54;;;;;;;18.92;14.40;;;;;;;;;;5155246;23;20002;-86
2022/11/10 12:36:38;;;;;;;20.63;14.02;;;;;;;;;;5187990;23;20043;-86
2022/11/10 12:39:24;;;;;;;15.27;10.48;;;;;;;;;;4960429;29;20039;-86
2022/11/10 12:42:11;;;;;;;14.73;10.13;;;;;;;;;;4947078;29;20027;-88
2022/11/10 12:44:58;;;;;;;23.95;13.40;;;;;;;;;;5063882;23;20047;-86
2022/11/10 12:47:53;;;;;;;18.77;12.45;;;;;;;;;;5672239;23;20151;31
2022/11/10 12:53:55;;;;;;;19.95;13.35;;;;;;;;;;4974720;28;20043;-84
2022/11/10 12:56:44;;;;;;;18.75;12.93;;;;;;;;;;4977385;29;20051;-84
2022/11/10 12:59:28;;;;;;;15.15;12.38;;;;;;;;;;4974669;29;20031;-85
2022/11/10 13:02:19;;;;;;;16.45;12.93;;;;;;;;;;4950945;29;20074;-84
2022/11/10 13:05:10;;;;;;;18.52;14.48;;;;;;;;;;4930804;29;20043;-85
2022/11/10 13:08:11;;;;;;;14.73;12.45;;;;;;;;;;4947503;29;20050;-84
2022/11/10 13:10:56;;;;;;;19.73;12.70;;;;;;;;;;4948088;29;20095;-84
2022/11/10 13:13:50;;;;;;;14.10;11.55;;;;;;;;;;4906375;29;20043;-83
2022/11/10 13:16:37;;;;;;;19.88;14.40;;;;;;;;;;4933570;29;20054;-85
2022/11/10 13:19:22;;;;;;;19.58;14.05;;;;;;;;;;4956108;29;20055;-85
2022/11/10 13:22:10;;;;;;;27.02;14.55;;;;;;;;;;4948948;29;20145;-82
2022/11/10 13:25:34;;;;;;;24.15;13.00;;;;;;;;;;4942003;29;20044;-82
2022/11/10 13:28:37;;;;;;;20.67;13.57;;;;;;;;;;4887014;29;20155;-82
2022/11/10 13:31:26;;;;;;;29.65;18.13;;;;;;;;;;4902882;29;20071;-82
2022/11/10 13:34:11;;;;;;;21.67;14.85;;;;;;;;;;4932772;29;20036;-82
2022/11/10 13:36:56;;;;;;;13.93;10.88;;;;;;;;;;4908888;29;20505;-81
2022/11/10 13:39:40;;;;;;;21.27;13.68;;;;;;;;;;4919372;29;20048;-82
2022/11/10 13:42:25;;;;;;;22.42;16.85;;;;;;;;;;4911824;29;20496;-74
2022/11/10 13:45:28;;;;;;;18.30;14.10;;;;;;;;;;4930307;29;20122;-72
2022/11/10 13:48:12;;;;;;;24.23;14.63;;;;;;;;;;4914334;29;20046;-74
2022/11/10 13:51:05;;;;;;;20.40;14.98;;;;;;;;;;4931576;29;20122;-74
2022/11/10 13:54:02;;;;;;;21.70;16.77;;;;;;;;;;4932014;29;20526;-73
2022/11/10 13:57:05;;;;;;;17.58;12.50;;;;;;;;;;4931194;29;20101;-73
2022/11/10 13:59:54;;;;;;;26.85;16.02;;;;;;;;;;4931689;29;20095;-74
2022/11/10 14:02:43;;;;;;;17.25;11.73;;;;;;;;;;4929188;29;20555;-74
2022/11/10 14:05:28;;;;;;;18.00;12.88;;;;;;;;;;4917250;29;20059;-73
2022/11/10 14:08:19;;;;;;;24.40;15.18;;;;;;;;;;4931086;29;20040;-73
2022/11/10 14:11:04;;;;;;;10.80;9.65;;;;;;;;;;4931174;29;20027;-73
2022/11/10 14:13:49;;;;;;;25.50;15.82;;;;;;;;;;4928995;29;20106;-74
2022/11/10 14:16:34;;;;;;;28.05;16.08;;;;;;;;;;4916878;29;20043;-74
2022/11/10 14:19:23;;;;;;;22.85;17.42;;;;;;;;;;4913683;29;20039;-73
2022/11/10 14:22:12;;;;;;;24.90;15.88;;;;;;;;;;4930710;29;20035;-74
2022/11/10 14:25:03;;;;;;;27.40;16.95;;;;;;;;;;4930596;29;20596;-74
2022/11/10 14:27:47;;;;;;;39.20;16.27;;;;;;;;;;4911511;29;20050;-78
2022/11/10 14:30:32;;;;;;;27.25;19.00;;;;;;;;;;4912799;29;20286;-78
2022/11/10 14:33:17;;;;;;;18.90;12.30;;;;;;;;;;4932198;29;20047;-77
2022/11/10 14:36:01;;;;;;;35.00;19.38;;;;;;;;;;4914491;29;20055;-77
2022/11/10 14:38:45;;;;;;;23.13;15.45;;;;;;;;;;4914842;29;20035;-76
2022/11/10 14:41:30;;;;;;;27.45;18.23;;;;;;;;;;4915150;29;20401;-78
2022/11/10 14:44:19;;;;;;;28.02;20.30;;;;;;;;;;4910931;29;20050;-76
2022/11/10 14:47:14;;;;;;;24.20;15.65;;;;;;;;;;4930927;29;20381;-77
2022/11/10 14:50:06;;;;;;;13.40;10.60;;;;;;;;;;4925571;29;20059;-74
2022/11/10 14:52:52;;;;;;;29.17;17.85;;;;;;;;;;4930562;29;20059;-74
2022/11/10 14:55:37;;;;;;;28.05;16.48;;;;;;;;;;4931033;29;20032;-75
2022/11/10 14:58:30;;;;;;;26.35;17.20;;;;;;;;;;4929897;29;20114;-74
2022/11/10 15:01:34;;;;;;;23.98;13.63;;;;;;;;;;4913795;29;20040;-74
2022/11/10 15:04:19;;;;;;;26.92;15.80;;;;;;;;;;4931036;29;20042;-75
2022/11/10 15:07:04;;;;;;;19.13;15.70;;;;;;;;;;4928217;29;20039;-75
2022/11/10 15:10:08;;;;;;;21.05;14.48;;;;;;;;;;4927781;29;20066;-75
2022/11/10 15:12:59;;;;;;;28.67;20.17;;;;;;;;;;4929171;29;20032;-76
2022/11/10 15:15:44;;;;;;;28.95;17.98;;;;;;;;;;4928431;29;20505;-75
2022/11/10 15:18:28;;;;;;;28.60;13.90;;;;;;;;;;4926833;29;20527;-75
2022/11/10 15:21:14;;;;;;;23.77;15.80;;;;;;;;;;4930661;29;20058;-75
2022/11/10 15:24:00;;;;;;;25.45;15.75;;;;;;;;;;4931620;29;20560;-74
2022/11/10 15:26:44;;;;;;;21.00;15.18;;;;;;;;;;4929533;29;20067;-75
2022/11/10 15:29:29;;;;;;;25.92;15.48;;;;;;;;;;4915892;29;20695;-76
2022/11/10 15:32:15;;;;;;;33.45;21.10;;;;;;;;;;4932058;29;20039;-76
2022/11/10 15:35:17;;;;;;;31.88;17.25;;;;;;;;;;4914350;29;20036;-76
2022/11/10 15:38:01;;;;;;;28.95;18.58;;;;;;;;;;4930889;29;20051;-75
2022/11/10 15:40:47;;;;;;;22.75;13.93;;;;;;;;;;4906406;29;20039;-75
2022/11/10 15:43:31;;;;;;;21.33;13.18;;;;;;;;;;4928773;29;20028;-76
2022/11/10 15:46:20;;;;;;;23.60;16.15;;;;;;;;;;4914876;29;20087;-75
2022/11/10 15:49:31;;;;;;;27.17;17.73;;;;;;;;;;4932372;29;20127;-76
2022/11/10 15:52:41;;;;;;;29.27;20.73;;;;;;;;;;4932618;29;20319;-75
2022/11/10 15:55:25;;;;;;;33.65;22.70;;;;;;;;;;4933633;29;20043;-74
2022/11/10 15:58:28;;;;;;;33.72;17.38;;;;;;;;;;4934454;29;20051;-76
2022/11/10 16:01:13;;;;;;;29.90;17.55;;;;;;;;;;4908313;29;20150;-76
2022/11/10 16:03:57;;;;;;;33.38;18.90;;;;;;;;;;4935579;29;20048;-75
2022/11/10 16:06:41;;;;;;;33.47;18.30;;;;;;;;;;4936141;29;20090;-77
2022/11/10 16:09:27;;;;;;;30.00;20.27;;;;;;;;;;4940795;29;20174;-76
2022/11/10 16:12:15;;;;;;;32.15;18.40;;;;;;;;;;4946026;29;20039;-76
2022/11/10 16:15:00;;;;;;;30.08;20.35;;;;;;;;;;4946788;29;20083;-76
2022/11/10 16:18:03;;;;;;;31.05;17.17;;;;;;;;;;4946938;29;20058;-75
2022/11/10 16:20:48;;;;;;;17.48;12.18;;;;;;;;;;4932203;29;20062;-75
2022/11/10 16:23:32;;;;;;;34.15;19.50;;;;;;;;;;4949060;29;20046;-76
2022/11/10 16:26:18;;;;;;;33.90;18.50;;;;;;;;;;4949613;29;20074;-74
2022/11/10 16:29:02;;;;;;;24.85;16.00;;;;;;;;;;4949474;29;20050;-75
2022/11/10 16:31:48;;;;;;;27.73;16.00;;;;;;;;;;4948027;29;20047;-75
2022/11/10 16:34:33;;;;;;;18.30;11.70;;;;;;;;;;4948597;29;20031;-75
2022/11/10 16:37:17;;;;;;;36.20;20.48;;;;;;;;;;4948386;29;20062;-75
2022/11/10 16:40:05;;;;;;;29.52;18.38;;;;;;;;;;4934057;29;20038;-74
2022/11/10 16:42:50;;;;;;;25.00;17.63;;;;;;;;;;4934042;29;20043;-75
2022/11/10 16:45:34;;;;;;;34.47;17.50;;;;;;;;;;4949352;29;20505;-75
2022/11/10 16:48:22;;;;;;;27.80;16.83;;;;;;;;;;4933481;29;20031;-76
2022/11/10 16:51:06;;;;;;;34.03;17.58;;;;;;;;;;4935211;29;20039;-76
2022/11/10 16:53:52;;;;;;;33.08;21.02;;;;;;;;;;4949977;29;20039;-76
2022/11/10 16:56:36;;;;;;;31.38;17.40;;;;;;;;;;4945730;29;20055;-76
2022/11/10 16:59:21;;;;;;;33.05;18.08;;;;;;;;;;4929774;29;20066;-76
2022/11/10 17:02:14;;;;;;;29.85;17.95;;;;;;;;;;4944714;29;20040;-76
2022/11/10 17:04:59;;;;;;;28.25;17.35;;;;;;;;;;4932451;29;20039;-76
2022/11/10 17:07:43;;;;;;;29.70;17.88;;;;;;;;;;4946542;29;20046;-75
2022/11/10 17:10:28;;;;;;;29.30;18.65;;;;;;;;;;4951344;29;20031;-75
2022/11/10 17:13:12;;;;;;;36.42;21.95;;;;;;;;;;4950089;29;20039;-75
2022/11/10 17:16:07;;;;;;;26.17;16.15;;;;;;;;;;4946771;29;20039;-75
2022/11/10 17:19:19;;;;;;;36.15;20.40;;;;;;;;;;4935041;29;20115;-76
2022/11/10 17:22:08;;;;;;;29.88;18.83;;;;;;;;;;4944817;29;20036;-76
2022/11/10 17:25:25;;;;;;;18.77;13.00;;;;;;;;;;4941136;29;20099;-75